createdAt,value
2018-05-14T00:01:14.103Z,13.40
2018-05-14T00:03:42.641Z,13.30
2018-05-14T00:06:10.156Z,15.53
2018-05-14T00:08:37.697Z,12.83
2018-05-14T00:11:05.230Z,15.07
2018-05-14T00:13:32.719Z,13.40
2018-05-14T00:16:01.037Z,13.40
2018-05-14T00:18:28.575Z,13.33
2018-05-14T00:20:56.176Z,12.57
2018-05-14T00:23:23.717Z,14.23
2018-05-14T00:25:51.264Z,12.07
2018-05-14T00:28:18.817Z,14.60
2018-05-14T00:30:46.337Z,14.13
2018-05-14T00:33:13.897Z,13.13
2018-05-14T00:35:41.459Z,14.10
2018-05-14T00:38:08.947Z,14.03
2018-05-14T00:40:36.426Z,14.00
2018-05-14T00:43:03.934Z,13.73
2018-05-14T00:45:31.453Z,15.17
2018-05-14T00:47:58.948Z,12.93
2018-05-14T00:50:26.485Z,17.53
2018-05-14T00:52:54.078Z,13.40
2018-05-14T00:55:21.574Z,13.40
2018-05-14T00:57:49.067Z,14.20
2018-05-14T01:00:16.634Z,16.00
2018-05-14T01:02:44.131Z,18.50
2018-05-14T01:05:11.642Z,17.00
2018-05-14T01:07:39.175Z,17.37
2018-05-14T01:10:06.712Z,17.83
2018-05-14T01:12:34.961Z,15.43
2018-05-14T01:15:03.218Z,16.27
2018-05-14T01:17:30.745Z,14.80
2018-05-14T01:19:58.261Z,16.20
2018-05-14T01:22:25.756Z,17.00
2018-05-14T01:24:59.594Z,15.23
2018-05-14T01:27:27.105Z,16.63
2018-05-14T01:29:54.707Z,18.80
2018-05-14T01:32:22.201Z,16.63
2018-05-14T01:34:49.712Z,18.50
2018-05-14T01:37:17.949Z,18.53
2018-05-14T01:39:45.449Z,19.70
2018-05-14T01:42:12.927Z,19.90
2018-05-14T01:44:40.451Z,20.40
2018-05-14T01:47:07.987Z,18.37
2018-05-14T01:49:35.469Z,19.30
2018-05-14T01:52:02.950Z,20.20
2018-05-14T01:54:30.449Z,20.43
2018-05-14T01:56:57.950Z,18.97
2018-05-14T01:59:25.467Z,22.20
2018-05-14T02:01:53.774Z,17.97
2018-05-14T02:04:21.188Z,21.47
2018-05-14T02:06:48.699Z,21.80
2018-05-14T02:09:16.949Z,22.83
2018-05-14T02:11:44.461Z,22.60
2018-05-14T02:14:11.970Z,22.60
2018-05-14T02:16:40.218Z,27.20
2018-05-14T02:19:07.714Z,26.70
2018-05-14T02:21:35.222Z,24.00
2018-05-14T02:24:03.613Z,29.37
2018-05-14T02:26:31.096Z,28.00
2018-05-14T02:28:58.669Z,27.90
2018-05-14T02:31:26.210Z,27.00
2018-05-14T02:33:53.701Z,28.13
2018-05-14T02:36:21.215Z,25.33
2018-05-14T02:38:48.724Z,37.77
2018-05-14T02:41:16.260Z,31.50
2018-05-14T02:43:43.832Z,26.93
2018-05-14T02:46:11.875Z,27.97
2018-05-14T02:48:40.126Z,24.90
2018-05-14T02:51:07.636Z,33.03
2018-05-14T02:53:35.153Z,35.77
2018-05-14T02:56:02.651Z,32.23
2018-05-14T02:58:30.152Z,27.67
2018-05-14T03:00:57.655Z,28.87
2018-05-14T03:03:25.173Z,29.27
2018-05-14T03:05:52.686Z,26.90
2018-05-14T03:08:20.215Z,28.30
2018-05-14T03:10:47.732Z,26.77
2018-05-14T03:13:15.250Z,26.93
2018-05-14T03:15:42.748Z,27.30
2018-05-14T03:18:10.243Z,26.70
2018-05-14T03:20:37.740Z,26.17
2018-05-14T03:23:06.001Z,25.23
2018-05-14T03:25:33.501Z,26.37
2018-05-14T03:28:01.029Z,24.87
2018-05-14T03:30:28.516Z,25.80
2018-05-14T03:32:56.023Z,24.03
2018-05-14T03:35:23.510Z,24.77
2018-05-14T03:37:51.006Z,25.57
2018-05-14T03:40:18.490Z,24.60
2018-05-14T03:42:45.986Z,24.27
2018-05-14T03:45:14.276Z,23.70
2018-05-14T03:47:42.565Z,24.07
2018-05-14T03:50:10.068Z,26.20
2018-05-14T03:52:38.322Z,27.60
2018-05-14T03:55:05.922Z,24.33
2018-05-14T03:57:33.435Z,28.50
2018-05-14T04:00:13.506Z,28.90
2018-05-14T04:02:52.801Z,27.87
2018-05-14T04:05:20.424Z,25.37
2018-05-14T04:07:48.001Z,28.00
2018-05-14T04:10:15.506Z,28.57
2018-05-14T04:12:43.012Z,32.83
2018-05-14T04:15:11.336Z,29.37
2018-05-14T04:17:38.816Z,27.97
2018-05-14T04:20:06.303Z,30.17
2018-05-14T04:22:33.882Z,29.67
2018-05-14T04:25:01.373Z,31.53
2018-05-14T04:27:28.913Z,28.13
2018-05-14T04:29:56.474Z,30.93
2018-05-14T04:32:24.002Z,29.10
2018-05-14T04:34:51.701Z,29.33
2018-05-14T04:37:19.220Z,33.30
2018-05-14T04:39:46.723Z,29.67
2018-05-14T04:42:14.995Z,27.60
2018-05-14T04:44:42.525Z,25.63
2018-05-14T04:47:09.999Z,25.83
2018-05-14T04:49:37.616Z,27.70
2018-05-14T04:52:05.133Z,26.07
2018-05-14T04:54:32.660Z,26.33
2018-05-14T04:57:00.214Z,23.83
2018-05-14T04:59:27.701Z,27.47
2018-05-14T05:01:55.989Z,26.97
2018-05-14T05:04:24.287Z,26.00
2018-05-14T05:06:51.781Z,26.23
2018-05-14T05:09:19.249Z,23.77
2018-05-14T05:11:46.770Z,25.40
2018-05-14T05:14:14.266Z,27.13
2018-05-14T05:16:41.846Z,25.23
2018-05-14T05:19:09.337Z,26.83
2018-05-14T05:21:36.817Z,25.03
2018-05-14T05:24:04.308Z,25.27
2018-05-14T05:26:31.806Z,25.20
2018-05-14T05:28:59.297Z,23.73
2018-05-14T05:31:26.789Z,23.80
2018-05-14T05:33:55.050Z,25.47
2018-05-14T05:36:22.538Z,23.37
2018-05-14T05:38:50.025Z,22.60
2018-05-14T05:41:17.524Z,22.00
2018-05-14T05:43:45.093Z,23.93
2018-05-14T05:46:12.513Z,23.67
2018-05-14T05:48:40.009Z,24.70
2018-05-14T05:51:07.505Z,24.97
2018-05-14T05:53:35.022Z,23.57
2018-05-14T05:56:02.505Z,22.43
2018-05-14T05:58:30.025Z,24.70
2018-05-14T06:00:57.517Z,22.13
2018-05-14T06:03:25.014Z,23.67
2018-05-14T06:05:52.498Z,22.47
2018-05-14T06:08:19.997Z,23.87
2018-05-14T06:10:47.495Z,25.10
2018-05-14T06:13:15.764Z,22.27
2018-05-14T06:15:43.261Z,21.57
2018-05-14T06:18:10.782Z,22.07
2018-05-14T06:20:38.374Z,21.57
2018-05-14T06:23:05.871Z,21.43
2018-05-14T06:25:33.359Z,21.93
2018-05-14T06:28:00.851Z,19.27
2018-05-14T06:30:28.409Z,19.17
2018-05-14T06:32:55.973Z,18.97
2018-05-14T06:35:24.267Z,18.33
2018-05-14T06:37:52.529Z,18.83
2018-05-14T06:40:20.027Z,19.67
2018-05-14T06:42:47.501Z,18.47
2018-05-14T06:45:15.040Z,18.60
2018-05-14T06:47:42.618Z,18.23
2018-05-14T06:50:10.230Z,18.13
2018-05-14T06:52:37.764Z,19.10
2018-05-14T06:55:05.277Z,17.43
2018-05-14T06:57:32.787Z,18.73
2018-05-14T07:00:00.371Z,19.53
2018-05-14T07:02:27.923Z,26.07
2018-05-14T07:04:55.428Z,18.43
2018-05-14T07:07:22.995Z,17.07
2018-05-14T07:09:50.501Z,17.03
2018-05-14T07:12:18.033Z,17.10
2018-05-14T07:14:45.546Z,18.73
2018-05-14T07:17:13.072Z,18.53
2018-05-14T07:19:40.581Z,16.97
2018-05-14T07:22:08.094Z,18.50
2018-05-14T07:24:35.687Z,17.97
2018-05-14T07:27:03.173Z,18.83
2018-05-14T07:29:30.676Z,17.10
2018-05-14T07:31:58.154Z,17.73
2018-05-14T07:34:25.646Z,18.53
2018-05-14T07:36:53.907Z,19.30
2018-05-14T07:39:21.405Z,17.97
2018-05-14T07:41:48.918Z,18.80
2018-05-14T07:44:16.398Z,19.37
2018-05-14T07:46:43.901Z,17.37
2018-05-14T07:49:11.389Z,17.53
2018-05-14T07:51:38.892Z,18.40
2018-05-14T07:54:06.379Z,18.97
2018-05-14T07:56:33.889Z,17.73
2018-05-14T07:59:02.169Z,17.73
2018-05-14T08:01:29.663Z,16.10
2018-05-14T08:03:57.169Z,16.87
2018-05-14T08:06:25.407Z,17.10
2018-05-14T08:08:53.589Z,17.20
2018-05-14T08:11:21.061Z,16.33
2018-05-14T08:13:48.554Z,17.80
2018-05-14T08:16:16.825Z,17.40
2018-05-14T08:18:44.310Z,17.77
2018-05-14T08:21:11.788Z,17.20
2018-05-14T08:23:39.278Z,16.70
2018-05-14T08:26:06.810Z,16.57
2018-05-14T08:28:34.539Z,17.60
2018-05-14T08:31:02.026Z,17.00
2018-05-14T08:33:29.521Z,16.30
2018-05-14T08:35:57.094Z,16.17
2018-05-14T08:38:24.575Z,17.83
2018-05-14T08:40:52.077Z,17.67
2018-05-14T08:43:19.570Z,17.63
2018-05-14T08:45:47.077Z,17.80
2018-05-14T08:48:14.580Z,18.17
2018-05-14T08:50:42.840Z,17.67
2018-05-14T08:53:10.329Z,18.00
2018-05-14T08:55:37.826Z,17.33
2018-05-14T08:58:05.307Z,17.67
2018-05-14T09:00:33.578Z,16.40
2018-05-14T09:03:01.526Z,17.13
2018-05-14T09:05:29.089Z,18.47
2018-05-14T09:07:57.358Z,18.20
2018-05-14T09:10:24.849Z,19.73
2018-05-14T09:12:52.360Z,18.07
2018-05-14T09:15:19.842Z,17.07
2018-05-14T09:17:48.092Z,18.60
2018-05-14T09:20:15.586Z,18.27
2018-05-14T09:22:43.101Z,18.43
2018-05-14T09:25:10.607Z,18.97
2018-05-14T09:27:38.108Z,19.10
2018-05-14T09:30:05.696Z,19.50
2018-05-14T09:32:33.178Z,19.67
2018-05-14T09:35:00.677Z,20.10
2018-05-14T09:37:28.162Z,20.37
2018-05-14T09:39:55.656Z,20.70
2018-05-14T09:42:23.935Z,21.50
2018-05-14T09:44:51.409Z,21.33
2018-05-14T09:47:18.912Z,22.00
2018-05-14T09:49:46.425Z,20.53
2018-05-14T09:52:13.908Z,19.60
2018-05-14T09:54:41.421Z,19.77
2018-05-14T09:57:08.916Z,19.70
2018-05-14T09:59:36.393Z,20.73
2018-05-14T10:02:03.880Z,19.73
2018-05-14T10:04:31.397Z,19.93
2018-05-14T10:06:59.653Z,21.17
2018-05-14T10:09:27.142Z,21.60
2018-05-14T10:11:54.630Z,20.23
2018-05-14T10:14:22.126Z,21.03
2018-05-14T10:16:50.370Z,19.43
2018-05-14T10:19:17.870Z,19.13
2018-05-14T10:21:45.370Z,17.40
2018-05-14T10:24:12.940Z,18.70
2018-05-14T10:26:40.366Z,18.63
2018-05-14T10:29:08.675Z,17.83
2018-05-14T10:31:36.204Z,19.87
2018-05-14T10:34:04.524Z,20.73
2018-05-14T10:36:32.016Z,21.13
2018-05-14T10:39:00.290Z,20.37
2018-05-14T10:41:27.783Z,20.30
2018-05-14T10:43:55.269Z,20.97
2018-05-14T10:46:22.749Z,20.97
2018-05-14T10:48:50.244Z,21.33
2018-05-14T10:51:18.511Z,21.33
2018-05-14T10:53:46.004Z,21.50
2018-05-14T10:56:14.261Z,20.93
2018-05-14T10:58:41.924Z,22.60
2018-05-14T11:01:09.324Z,21.13
2018-05-14T11:03:36.809Z,22.57
2018-05-14T11:06:04.293Z,23.03
2018-05-14T11:08:31.784Z,23.40
2018-05-14T11:10:59.289Z,23.10
2018-05-14T11:13:26.816Z,22.80
2018-05-14T11:15:54.302Z,22.87
2018-05-14T11:18:21.814Z,23.40
2018-05-14T11:20:49.329Z,22.53
2018-05-14T11:23:16.830Z,24.63
2018-05-14T11:25:45.090Z,24.47
2018-05-14T11:28:12.577Z,22.20
2018-05-14T11:30:40.062Z,23.77
2018-05-14T11:33:07.588Z,24.00
2018-05-14T11:35:35.071Z,26.07
2018-05-14T11:38:02.560Z,25.30
2018-05-14T11:40:30.037Z,28.33
2018-05-14T11:42:57.527Z,25.53
2018-05-14T11:45:25.013Z,23.80
2018-05-14T11:47:52.491Z,26.77
2018-05-14T11:50:19.983Z,26.27
2018-05-14T11:52:47.464Z,26.53
2018-05-14T11:55:16.160Z,27.83
2018-05-14T11:57:43.718Z,27.23
2018-05-14T12:00:11.246Z,28.63
2018-05-14T12:02:38.736Z,29.50
2018-05-14T12:05:06.235Z,29.57
2018-05-14T12:07:33.743Z,29.57
2018-05-14T12:10:02.082Z,29.07
2018-05-14T12:12:29.487Z,28.97
2018-05-14T12:14:57.772Z,30.07
2018-05-14T12:17:25.272Z,28.57
2018-05-14T12:19:52.746Z,31.23
2018-05-14T12:22:20.233Z,30.73
2018-05-14T12:24:47.723Z,30.03
2018-05-14T12:27:15.977Z,28.93
2018-05-14T12:29:43.456Z,27.93
2018-05-14T12:32:11.026Z,27.97
2018-05-14T12:34:38.440Z,27.20
2018-05-14T12:37:06.042Z,27.57
2018-05-14T12:39:33.524Z,29.07
2018-05-14T12:42:01.044Z,28.73
2018-05-14T12:44:28.523Z,26.50
2018-05-14T12:46:56.069Z,28.47
2018-05-14T12:49:23.560Z,30.80
2018-05-14T12:51:51.896Z,29.60
2018-05-14T12:54:19.309Z,29.70
2018-05-14T12:56:46.784Z,30.20
2018-05-14T12:59:14.270Z,29.53
2018-05-14T13:01:41.757Z,28.57
2018-05-14T13:04:09.244Z,29.60
2018-05-14T13:06:36.891Z,29.27
2018-05-14T13:09:04.416Z,28.20
2018-05-14T13:11:31.905Z,28.33
2018-05-14T13:13:59.398Z,30.80
2018-05-14T13:16:27.649Z,28.77
2018-05-14T13:18:55.137Z,29.80
2018-05-14T13:21:22.642Z,32.53
2018-05-14T13:23:50.132Z,32.00
2018-05-14T13:26:18.466Z,29.60
2018-05-14T13:28:46.688Z,27.63
2018-05-14T13:31:14.245Z,30.40
2018-05-14T13:33:41.753Z,31.57
2018-05-14T13:36:09.265Z,27.90
2018-05-14T13:38:37.617Z,28.97
2018-05-14T13:41:05.195Z,28.47
2018-05-14T13:43:32.685Z,30.73
2018-05-14T13:46:00.174Z,27.53
2018-05-14T13:48:27.666Z,26.90
2018-05-14T13:50:55.165Z,27.93
2018-05-14T13:53:22.669Z,26.60
2018-05-14T13:55:50.937Z,27.77
2018-05-14T13:58:18.462Z,27.37
2018-05-14T14:00:45.961Z,23.10
2018-05-14T14:03:13.445Z,23.00
2018-05-14T14:05:41.036Z,25.40
2018-05-14T14:08:08.576Z,22.97
2018-05-14T14:10:36.055Z,20.00
2018-05-14T14:13:03.542Z,16.93
2018-05-14T14:15:31.784Z,19.67
2018-05-14T14:17:59.276Z,20.57
2018-05-14T14:20:26.768Z,22.07
2018-05-14T14:22:54.253Z,22.87
2018-05-14T14:25:21.750Z,20.43
2018-05-14T14:27:49.232Z,19.13
2018-05-14T14:30:16.720Z,18.07
2018-05-14T14:32:44.203Z,15.30
2018-05-14T14:35:12.487Z,14.77
2018-05-14T14:37:39.974Z,13.87
2018-05-14T14:40:07.456Z,13.37
2018-05-14T14:42:34.938Z,10.10
2018-05-14T14:45:02.433Z,11.83
2018-05-14T14:47:30.676Z,9.80
2018-05-14T14:49:58.165Z,6.57
2018-05-14T14:52:25.647Z,4.60
2018-05-14T14:54:53.122Z,4.77
2018-05-14T14:57:20.606Z,5.17
2018-05-14T14:59:48.099Z,3.77
2018-05-14T15:02:15.619Z,4.07
2018-05-14T15:04:43.912Z,4.80
2018-05-14T15:07:11.390Z,7.07
2018-05-14T15:09:38.877Z,9.17
2018-05-14T15:12:06.878Z,8.47
2018-05-14T15:14:35.220Z,6.70
2018-05-14T15:17:03.423Z,8.63
2018-05-14T15:19:30.910Z,8.30
2018-05-14T15:21:58.390Z,7.77
2018-05-14T15:24:25.888Z,9.00
2018-05-14T15:26:53.496Z,7.00
2018-05-14T15:29:21.747Z,10.13
2018-05-14T15:31:49.251Z,8.13
2018-05-14T15:34:16.724Z,5.93
2018-05-14T15:36:44.223Z,8.00
2018-05-14T15:39:11.720Z,5.20
2018-05-14T15:41:39.982Z,7.17
2018-05-14T15:44:07.462Z,8.53
2018-05-14T15:46:34.949Z,3.50
2018-05-14T15:49:02.447Z,6.00
2018-05-14T15:51:29.961Z,3.60
2018-05-14T15:53:57.567Z,5.83
2018-05-14T15:56:25.133Z,5.13
2018-05-14T15:58:53.160Z,6.50
2018-05-14T16:01:20.650Z,3.40
2018-05-14T16:03:48.146Z,4.93
2018-05-14T16:06:15.630Z,5.67
2018-05-14T16:08:43.325Z,6.93
2018-05-14T16:11:11.598Z,2.80
2018-05-14T16:13:39.076Z,3.80
2018-05-14T16:16:06.603Z,4.30
2018-05-14T16:18:34.128Z,5.07
2018-05-14T16:21:01.602Z,5.10
2018-05-14T16:23:29.125Z,3.63
2018-05-14T16:25:56.649Z,3.73
2018-05-14T16:28:24.209Z,7.13
2018-05-14T16:30:51.794Z,5.23
2018-05-14T16:33:20.653Z,2.27
2018-05-14T16:35:48.297Z,2.30
2018-05-14T16:38:15.902Z,3.13
2018-05-14T16:40:44.195Z,3.10
2018-05-14T16:43:12.317Z,4.43
2018-05-14T16:45:40.433Z,4.40
2018-05-14T16:48:08.642Z,3.53
2018-05-14T16:50:36.953Z,4.77
2018-05-14T16:53:05.524Z,3.20
2018-05-14T16:55:34.101Z,3.43
2018-05-14T16:58:02.963Z,3.30
2018-05-14T17:00:31.590Z,3.20
2018-05-14T17:03:01.406Z,4.13
2018-05-14T17:05:29.863Z,3.40
2018-05-14T17:07:59.305Z,3.23
2018-05-14T17:10:27.820Z,3.50
2018-05-14T17:12:56.323Z,2.90
2018-05-14T17:15:24.760Z,2.73
2018-05-14T17:17:53.106Z,3.77
2018-05-14T17:20:22.312Z,3.33
2018-05-14T17:22:50.580Z,3.17
2018-05-14T17:25:18.921Z,2.60
2018-05-14T17:27:47.346Z,4.97
2018-05-14T17:30:15.442Z,3.23
2018-05-14T17:32:43.815Z,3.63
2018-05-14T17:35:12.307Z,2.80
2018-05-14T17:37:41.048Z,4.20
2018-05-14T17:40:09.414Z,4.07
2018-05-14T17:42:37.812Z,2.17
2018-05-14T17:45:06.143Z,3.63
2018-05-14T17:47:35.381Z,4.13
2018-05-14T17:50:03.614Z,4.43
2018-05-14T17:52:31.993Z,4.97
2018-05-14T17:55:00.294Z,2.13
2018-05-14T17:57:28.692Z,6.67
2018-05-14T17:59:57.736Z,4.63
2018-05-14T18:02:26.188Z,2.50
2018-05-14T18:04:55.246Z,3.70
2018-05-14T18:07:23.610Z,5.07
2018-05-14T18:09:51.914Z,5.60
2018-05-14T18:12:20.298Z,2.73
2018-05-14T18:14:49.382Z,3.17
2018-05-14T18:17:17.396Z,3.93
2018-05-14T18:19:51.401Z,3.63
2018-05-14T18:22:25.243Z,3.10
2018-05-14T18:24:59.169Z,4.70
2018-05-14T18:27:32.628Z,3.33
2018-05-14T18:30:06.071Z,3.10
2018-05-14T18:32:33.793Z,3.67
2018-05-14T18:35:07.759Z,3.40
2018-05-14T18:37:35.475Z,2.73
2018-05-14T18:40:04.343Z,4.87
2018-05-14T18:42:32.513Z,2.80
2018-05-14T18:45:00.825Z,3.93
2018-05-14T18:47:28.997Z,2.53
2018-05-14T18:49:57.362Z,6.03
2018-05-14T18:52:26.406Z,5.47
2018-05-14T18:54:54.243Z,2.27
2018-05-14T18:57:22.578Z,4.33
2018-05-14T18:59:51.584Z,3.70
2018-05-14T19:02:19.435Z,6.03
2018-05-14T19:04:48.212Z,3.57
2018-05-14T19:07:15.975Z,3.30
2018-05-14T19:09:44.019Z,3.63
2018-05-14T19:12:12.450Z,3.83
2018-05-14T19:14:40.382Z,3.27
2018-05-14T19:17:13.804Z,4.83
2018-05-14T19:19:41.592Z,4.60
2018-05-14T19:22:10.158Z,5.27
2018-05-14T19:24:37.941Z,5.73
2018-05-14T19:27:06.796Z,3.60
2018-05-14T19:29:34.468Z,3.47
2018-05-14T19:32:02.102Z,4.77
2018-05-14T19:34:35.333Z,3.37
2018-05-14T19:37:02.782Z,4.00
2018-05-14T19:39:36.038Z,5.00
2018-05-14T19:42:04.262Z,3.73
2018-05-14T19:44:31.714Z,5.00
2018-05-14T19:46:59.186Z,8.13
2018-05-14T19:49:26.685Z,6.43
2018-05-14T19:51:54.902Z,5.17
2018-05-14T19:54:22.346Z,5.07
2018-05-14T19:56:49.821Z,5.33
2018-05-14T19:59:17.275Z,4.10
2018-05-14T20:01:44.751Z,4.30
2018-05-14T20:04:12.196Z,4.87
2018-05-14T20:06:39.707Z,4.13
2018-05-14T20:09:07.118Z,4.63
2018-05-14T20:11:34.565Z,5.67
2018-05-14T20:14:02.028Z,3.43
2018-05-14T20:16:29.474Z,5.23
2018-05-14T20:18:56.927Z,6.07
2018-05-14T20:21:24.394Z,3.97
2018-05-14T20:23:51.849Z,6.23
2018-05-14T20:26:19.297Z,3.93
2018-05-14T20:28:46.754Z,4.63
2018-05-14T20:31:14.205Z,4.37
2018-05-14T20:33:41.660Z,2.93
2018-05-14T20:36:09.153Z,3.23
2018-05-14T20:38:36.618Z,3.00
2018-05-14T20:41:04.079Z,2.90
2018-05-14T20:43:31.544Z,4.27
2018-05-14T20:45:59.875Z,4.93
2018-05-14T20:48:27.337Z,3.30
2018-05-14T20:50:54.813Z,5.77
2018-05-14T20:53:22.323Z,5.33
2018-05-14T20:55:49.774Z,3.77
2018-05-14T20:58:17.246Z,4.00
2018-05-14T21:00:44.719Z,4.33
2018-05-14T21:03:12.198Z,3.93
2018-05-14T21:05:39.735Z,3.93
2018-05-14T21:08:07.908Z,5.10
2018-05-14T21:10:35.366Z,4.00
2018-05-14T21:13:02.826Z,3.80
2018-05-14T21:15:30.309Z,6.67
2018-05-14T21:17:57.787Z,4.00
2018-05-14T21:20:26.028Z,5.53
2018-05-14T21:22:53.485Z,7.30
2018-05-14T21:25:20.984Z,3.10
2018-05-14T21:27:48.492Z,3.23
2018-05-14T21:30:15.964Z,3.53
2018-05-14T21:32:43.454Z,3.60
2018-05-14T21:35:11.686Z,3.30
2018-05-14T21:37:39.154Z,5.63
2018-05-14T21:40:06.601Z,4.33
2018-05-14T21:42:34.073Z,5.90
2018-05-14T21:45:01.525Z,4.63
2018-05-14T21:47:28.978Z,6.20
2018-05-14T21:49:56.437Z,3.63
2018-05-14T21:52:23.944Z,5.57
2018-05-14T21:54:52.187Z,6.20
2018-05-14T21:57:19.674Z,4.17
2018-05-14T21:59:47.915Z,4.03
2018-05-14T22:02:15.388Z,5.93
2018-05-14T22:04:42.873Z,4.13
2018-05-14T22:07:10.323Z,6.20
2018-05-14T22:09:37.790Z,4.10
2018-05-14T22:12:05.289Z,3.83
2018-05-14T22:14:32.759Z,4.83
2018-05-14T22:17:00.239Z,3.87
2018-05-14T22:19:28.490Z,6.30
2018-05-14T22:21:55.962Z,4.77
2018-05-14T22:24:24.216Z,5.67
2018-05-14T22:26:51.698Z,4.40
2018-05-14T22:29:19.158Z,7.17
2018-05-14T22:31:47.388Z,5.20
2018-05-14T22:34:14.869Z,5.13
2018-05-14T22:36:42.342Z,3.70
2018-05-14T22:39:09.816Z,4.50
2018-05-14T22:41:38.059Z,6.33
2018-05-14T22:44:05.551Z,7.57
2018-05-14T22:46:33.783Z,4.80
2018-05-14T22:49:01.278Z,3.90
2018-05-14T22:51:29.505Z,4.17
2018-05-14T22:53:56.997Z,6.73
2018-05-14T22:56:24.451Z,5.03
2018-05-14T22:58:51.911Z,5.70
2018-05-14T23:01:19.372Z,6.40
2018-05-14T23:03:46.831Z,7.47
2018-05-14T23:06:14.281Z,5.80
2018-05-14T23:08:41.756Z,5.97
2018-05-14T23:11:09.211Z,7.17
2018-05-14T23:13:37.433Z,6.30
2018-05-14T23:16:05.671Z,6.67
2018-05-14T23:18:33.174Z,8.07
2018-05-14T23:21:00.672Z,7.10
2018-05-14T23:23:28.949Z,6.90
2018-05-14T23:25:57.190Z,8.17
2018-05-14T23:28:24.663Z,6.73
2018-05-14T23:30:52.142Z,7.30
2018-05-14T23:33:20.378Z,6.23
2018-05-14T23:35:47.840Z,6.23
2018-05-14T23:38:16.182Z,7.77
2018-05-14T23:40:43.639Z,6.63
2018-05-14T23:43:11.220Z,6.37
2018-05-14T23:45:38.666Z,8.07
2018-05-14T23:48:06.123Z,6.70
2018-05-14T23:50:33.581Z,7.50
2018-05-14T23:53:01.062Z,6.57
2018-05-14T23:55:28.501Z,6.43
2018-05-14T23:57:55.970Z,6.57
